Time;durP1;ratioP1;P1;durP2;ratioP2;P2;SDS_P1;SDS_P2;PMS_P1;PMS_P2;Temp;Humidity;BMP_temperature;BMP_pressure;BME280_temperature;BME280_humidity;BME280_pressure;Samples;Min_cycle;Max_cycle;Signal;HPM_P1;HPM_P2
2022/03/31 00:01:38;;;;;;;15.10;13.48;;;11.30;99.90;;;;;;5114946;28;20211;-86
2022/03/31 00:04:07;;;;;;;21.17;14.95;;;11.30;99.90;;;;;;5115875;27;20203;-86
2022/03/31 00:06:35;;;;;;;15.63;14.10;;;11.30;99.90;;;;;;5115805;27;20204;-86
2022/03/31 00:09:03;;;;;;;14.88;13.50;;;11.20;99.90;;;;;;5115462;27;20296;-86
2022/03/31 00:11:34;;;;;;;18.13;12.70;;;11.20;99.90;;;;;;5115258;28;20261;-87
2022/03/31 00:14:02;;;;;;;14.52;12.55;;;11.20;99.90;;;;;;5115955;27;20303;-88
2022/03/31 00:16:31;;;;;;;16.17;12.93;;;11.20;99.90;;;;;;5115302;27;20294;-87
2022/03/31 00:18:59;;;;;;;14.25;12.85;;;11.20;99.90;;;;;;5115948;28;20207;-86
2022/03/31 00:22:01;;;;;;;15.02;13.38;;;11.30;99.90;;;;;;5115051;27;20223;-86
2022/03/31 00:24:29;;;;;;;22.20;14.63;;;11.20;99.90;;;;;;5115961;27;20207;-87
2022/03/31 00:26:59;;;;;;;17.83;14.15;;;11.30;99.90;;;;;;5115763;27;20282;-86
2022/03/31 00:29:27;;;;;;;19.35;14.00;;;11.30;99.90;;;;;;5115538;27;20200;-87
2022/03/31 00:31:56;;;;;;;16.50;14.70;;;11.30;99.90;;;;;;5115520;27;20279;-87
2022/03/31 00:34:24;;;;;;;15.77;14.07;;;11.30;99.90;;;;;;5115905;27;20200;-87
2022/03/31 00:36:52;;;;;;;20.20;15.75;;;11.20;99.90;;;;;;5115790;27;20207;-87
2022/03/31 00:39:33;;;;;;;17.45;14.45;;;11.20;99.90;;;;;;5115472;27;20200;-87
2022/03/31 00:42:03;;;;;;;17.13;14.32;;;11.20;99.90;;;;;;5115429;27;20254;-86
2022/03/31 00:44:32;;;;;;;18.75;13.45;;;11.20;99.90;;;;;;5115318;27;20203;-86
2022/03/31 00:47:00;;;;;;;15.15;13.60;;;11.20;99.90;;;;;;5115691;27;20216;-86
2022/03/31 00:49:30;;;;;;;14.35;12.85;;;11.20;99.90;;;;;;5115242;27;20291;-86
2022/03/31 00:51:58;;;;;;;17.88;13.52;;;11.20;99.90;;;;;;5115327;28;20239;-86
2022/03/31 00:54:27;;;;;;;14.98;13.45;;;11.20;99.90;;;;;;5114841;27;20204;-86
2022/03/31 00:56:57;;;;;;;15.52;13.95;;;11.20;99.90;;;;;;5115138;27;20283;-87
2022/03/31 00:59:28;;;;;;;16.13;14.48;;;11.20;99.90;;;;;;5115182;27;20287;-86
2022/03/31 01:01:58;;;;;;;17.60;14.75;;;11.20;99.90;;;;;;5114804;27;20238;-86
2022/03/31 01:04:27;;;;;;;15.85;14.25;;;11.30;99.90;;;;;;5115380;27;20200;-86
2022/03/31 01:06:56;;;;;;;17.10;14.50;;;11.20;99.90;;;;;;5115014;28;20255;-87
2022/03/31 01:09:25;;;;;;;18.17;15.10;;;11.20;99.90;;;;;;5115232;27;20235;-87
2022/03/31 01:11:54;;;;;;;14.70;13.20;;;11.20;99.90;;;;;;5114074;27;20220;-86
2022/03/31 01:14:23;;;;;;;17.13;14.98;;;11.20;99.90;;;;;;5115963;27;20199;-87
2022/03/31 01:16:53;;;;;;;22.70;14.48;;;11.20;99.90;;;;;;5134947;27;20267;-87
2022/03/31 01:19:21;;;;;;;16.63;13.80;;;11.10;99.90;;;;;;5128154;27;20299;-86
2022/03/31 01:21:50;;;;;;;14.65;13.20;;;11.20;99.90;;;;;;5118971;27;20249;-87
2022/03/31 01:24:20;;;;;;;19.02;14.93;;;11.10;99.90;;;;;;5135380;27;20298;-86
2022/03/31 01:26:49;;;;;;;22.70;14.45;;;11.10;99.90;;;;;;5127093;27;20200;-85
2022/03/31 01:29:17;;;;;;;17.23;14.52;;;11.10;99.90;;;;;;5114982;27;20208;-87
2022/03/31 01:31:46;;;;;;;17.08;15.05;;;11.10;99.90;;;;;;5117259;27;20238;-86
2022/03/31 01:34:14;;;;;;;15.93;14.15;;;11.10;99.90;;;;;;5135147;27;20213;-87
2022/03/31 01:36:43;;;;;;;19.67;15.70;;;11.10;99.90;;;;;;5127348;27;20231;-87
2022/03/31 01:39:11;;;;;;;16.40;14.88;;;11.00;99.90;;;;;;5114572;27;20203;-87
2022/03/31 01:41:41;;;;;;;17.45;15.25;;;11.10;99.90;;;;;;5114758;27;20250;-86
2022/03/31 01:44:10;;;;;;;17.52;15.23;;;11.10;99.90;;;;;;5114689;27;20215;-85
2022/03/31 01:46:38;;;;;;;16.08;14.38;;;11.10;99.90;;;;;;5116517;27;20219;-86
2022/03/31 01:49:07;;;;;;;19.23;15.70;;;11.10;99.90;;;;;;5117890;27;20200;-86
2022/03/31 01:51:36;;;;;;;16.08;14.48;;;11.10;99.90;;;;;;5123258;27;20306;-86
2022/03/31 01:54:05;;;;;;;21.30;15.80;;;11.00;99.90;;;;;;5134894;27;20202;-86
2022/03/31 01:56:33;;;;;;;17.92;14.55;;;11.00;99.90;;;;;;5133741;27;20211;-86
2022/03/31 01:59:03;;;;;;;21.33;13.73;;;11.00;99.90;;;;;;5134648;27;20290;-86
2022/03/31 02:01:31;;;;;;;17.70;14.68;;;11.00;99.90;;;;;;5130178;27;20306;-86
2022/03/31 02:04:00;;;;;;;14.93;13.38;;;11.00;99.90;;;;;;5134577;27;20218;-86
2022/03/31 02:06:29;;;;;;;21.23;15.80;;;11.00;99.90;;;;;;5123922;27;20308;-85
2022/03/31 02:08:58;;;;;;;16.33;14.63;;;11.10;99.90;;;;;;5115707;27;20203;-84
2022/03/31 02:11:28;;;;;;;18.95;16.08;;;11.10;99.90;;;;;;5117211;27;20280;-86
2022/03/31 02:13:57;;;;;;;20.25;15.88;;;11.10;99.90;;;;;;5114305;27;20246;-85
2022/03/31 02:16:27;;;;;;;19.75;15.50;;;11.10;99.90;;;;;;5116461;27;20291;-86
2022/03/31 02:18:55;;;;;;;14.82;13.32;;;11.20;99.90;;;;;;5113870;27;20219;-86
2022/03/31 02:21:24;;;;;;;15.93;14.35;;;11.20;99.90;;;;;;5129743;27;20306;-86
2022/03/31 02:23:52;;;;;;;24.00;15.77;;;11.10;99.90;;;;;;5132629;27;20272;-86
2022/03/31 02:26:21;;;;;;;19.70;14.70;;;11.10;99.90;;;;;;5113988;27;20203;-86
2022/03/31 02:28:50;;;;;;;17.42;13.45;;;11.10;99.90;;;;;;5121847;27;20206;-86
2022/03/31 02:31:18;;;;;;;21.33;15.32;;;11.10;99.90;;;;;;5113148;27;20275;-86
2022/03/31 02:33:48;;;;;;;18.67;14.43;;;11.10;99.90;;;;;;5116213;27;20196;-86
2022/03/31 02:36:16;;;;;;;17.70;15.90;;;11.10;99.90;;;;;;5113533;27;20288;-86
2022/03/31 02:38:44;;;;;;;17.27;15.48;;;11.10;99.90;;;;;;5120377;27;20286;-85
2022/03/31 02:41:13;;;;;;;20.55;15.50;;;11.00;99.90;;;;;;5133086;27;20268;-86
2022/03/31 02:43:41;;;;;;;17.98;16.15;;;11.10;99.90;;;;;;5129886;27;20282;-85
2022/03/31 02:46:10;;;;;;;20.27;17.00;;;11.00;99.90;;;;;;5133537;27;20238;-86
2022/03/31 02:48:39;;;;;;;20.10;16.20;;;11.00;99.90;;;;;;5132521;27;20195;-85
2022/03/31 02:51:09;;;;;;;16.45;14.77;;;11.00;99.90;;;;;;5133328;27;20255;-86
2022/03/31 02:56:23;;;;;;;19.77;16.40;;;11.00;99.90;;;;;;5130128;27;20213;-86
2022/03/31 02:58:51;;;;;;;23.35;17.17;;;11.00;99.90;;;;;;5112872;28;20203;-85
2022/03/31 03:01:21;;;;;;;19.60;17.48;;;11.00;99.90;;;;;;5117984;27;20310;-85
2022/03/31 03:03:50;;;;;;;27.08;16.95;;;11.00;99.90;;;;;;5133798;27;20210;-85
2022/03/31 03:06:20;;;;;;;22.73;16.77;;;11.00;99.90;;;;;;5132552;27;20194;-85
2022/03/31 03:08:48;;;;;;;27.88;17.08;;;10.90;99.90;;;;;;5133300;27;20234;-86
2022/03/31 03:11:17;;;;;;;20.00;15.63;;;10.90;99.90;;;;;;5125003;27;20283;-85
2022/03/31 03:13:46;;;;;;;22.67;15.10;;;10.90;99.90;;;;;;5112566;27;20219;-86
2022/03/31 03:16:14;;;;;;;18.88;16.88;;;10.80;99.90;;;;;;5116007;27;20231;-86
2022/03/31 03:18:43;;;;;;;20.75;16.80;;;10.80;99.90;;;;;;5112900;27;20203;-86
2022/03/31 03:21:11;;;;;;;17.38;15.40;;;10.80;99.90;;;;;;5112589;27;20200;-86
2022/03/31 03:23:42;;;;;;;22.52;17.85;;;10.80;99.90;;;;;;5112326;28;20242;-86
2022/03/31 03:26:10;;;;;;;18.10;15.95;;;10.80;99.90;;;;;;5132248;27;20203;-86
2022/03/31 03:28:38;;;;;;;22.83;17.00;;;10.90;99.90;;;;;;5131697;27;20290;-86
2022/03/31 03:31:07;;;;;;;20.08;16.83;;;10.90;99.90;;;;;;5112728;27;20192;-86
2022/03/31 03:33:36;;;;;;;21.05;16.52;;;10.90;99.90;;;;;;5113510;27;20207;-87
2022/03/31 03:36:08;;;;;;;18.55;15.80;;;10.90;99.90;;;;;;5116729;27;20227;-86
2022/03/31 03:38:37;;;;;;;17.98;16.05;;;10.90;99.90;;;;;;5119993;27;20199;-86
2022/03/31 03:41:07;;;;;;;18.20;16.23;;;10.90;99.90;;;;;;5116440;27;20292;-86
2022/03/31 03:43:35;;;;;;;19.08;17.05;;;10.90;99.90;;;;;;5121313;27;20296;-87
2022/03/31 03:46:03;;;;;;;17.75;16.05;;;11.00;99.90;;;;;;5116630;27;20295;-85
2022/03/31 03:48:32;;;;;;;21.33;16.85;;;11.00;99.90;;;;;;5118196;27;20215;-85
2022/03/31 03:51:01;;;;;;;22.25;16.35;;;11.00;99.90;;;;;;5116383;27;20203;-85
2022/03/31 03:53:29;;;;;;;18.05;15.13;;;10.90;99.90;;;;;;5130879;27;20187;-85
2022/03/31 03:55:58;;;;;;;21.27;18.55;;;11.00;99.90;;;;;;5137023;27;20226;-86
2022/03/31 03:58:27;;;;;;;20.75;17.73;;;10.90;99.90;;;;;;5132703;27;20223;-86
2022/03/31 04:00:56;;;;;;;19.75;17.67;;;10.90;99.90;;;;;;5135238;27;20229;-86
2022/03/31 04:03:24;;;;;;;21.13;18.13;;;10.90;99.90;;;;;;5136622;27;20276;-85
2022/03/31 04:05:54;;;;;;;21.30;17.67;;;11.00;99.90;;;;;;5135315;27;20199;-86
2022/03/31 04:08:23;;;;;;;19.10;17.15;;;10.90;99.90;;;;;;5136951;27;20231;-85
2022/03/31 04:10:52;;;;;;;17.25;15.52;;;10.90;99.90;;;;;;5135985;27;20207;-85
2022/03/31 04:13:21;;;;;;;19.63;16.83;;;10.90;99.90;;;;;;5136807;27;20214;-86
2022/03/31 04:15:51;;;;;;;18.83;16.48;;;10.90;99.90;;;;;;5127487;27;20291;-85
2022/03/31 04:18:19;;;;;;;23.60;17.60;;;10.90;99.90;;;;;;5124047;27;20199;-85
2022/03/31 04:20:53;;;;;;;18.20;16.35;;;10.90;99.90;;;;;;5121895;27;20226;-85
2022/03/31 04:23:21;;;;;;;17.92;16.20;;;10.90;99.90;;;;;;5129461;27;20215;-85
2022/03/31 04:25:49;;;;;;;17.02;15.23;;;10.90;99.90;;;;;;5131481;27;20203;-85
2022/03/31 04:28:18;;;;;;;17.77;15.95;;;10.90;99.90;;;;;;5123569;27;20234;-85
2022/03/31 04:30:46;;;;;;;25.30;18.48;;;10.90;99.90;;;;;;5116058;27;20233;-92
2022/03/31 04:33:16;;;;;;;23.92;17.83;;;10.90;99.90;;;;;;5115534;28;20235;-85
2022/03/31 04:35:47;;;;;;;20.10;17.38;;;10.90;99.90;;;;;;5116183;27;20288;-86
2022/03/31 04:38:16;;;;;;;21.23;18.17;;;10.90;99.90;;;;;;5116776;27;20219;-85
2022/03/31 04:40:44;;;;;;;22.13;18.42;;;10.80;99.90;;;;;;5116084;27;20226;-86
2022/03/31 04:43:13;;;;;;;34.33;18.23;;;10.80;99.90;;;;;;5115501;27;20219;-86
2022/03/31 04:45:41;;;;;;;26.48;19.08;;;10.80;99.90;;;;;;5115575;27;20303;-86
2022/03/31 04:48:10;;;;;;;25.27;20.20;;;10.80;99.90;;;;;;5115966;28;20203;-86
2022/03/31 04:50:40;;;;;;;27.48;20.48;;;10.70;99.90;;;;;;5124689;27;20282;-86
2022/03/31 04:53:09;;;;;;;21.88;19.60;;;10.70;99.90;;;;;;5116290;27;20311;-86
2022/03/31 04:55:38;;;;;;;22.13;19.85;;;10.70;99.90;;;;;;5131709;27;20266;-86
2022/03/31 04:58:06;;;;;;;23.00;19.50;;;10.60;99.90;;;;;;5117917;27;20234;-85
2022/03/31 05:00:35;;;;;;;23.08;20.63;;;10.60;99.90;;;;;;5116095;27;20215;-85
2022/03/31 05:03:04;;;;;;;24.70;21.98;;;10.50;99.90;;;;;;5115989;27;20255;-86
2022/03/31 05:05:32;;;;;;;25.50;21.67;;;10.50;99.90;;;;;;5133709;27;20199;-85
2022/03/31 05:08:02;;;;;;;27.33;22.38;;;10.60;99.90;;;;;;5136411;27;20237;-85
2022/03/31 05:10:31;;;;;;;24.67;21.30;;;10.50;99.90;;;;;;5136167;27;20270;-86
2022/03/31 05:12:59;;;;;;;28.15;21.30;;;10.50;99.90;;;;;;5135546;27;20235;-85
2022/03/31 05:15:27;;;;;;;30.98;22.52;;;10.50;99.90;;;;;;5136772;27;20294;-85
2022/03/31 05:18:01;;;;;;;23.13;19.85;;;10.50;99.90;;;;;;5136144;27;20200;-86
2022/03/31 05:20:30;;;;;;;24.08;21.52;;;10.50;99.90;;;;;;5142121;27;20195;-86
2022/03/31 05:22:58;;;;;;;26.50;22.60;;;10.50;99.90;;;;;;5140581;27;20283;-87
2022/03/31 05:25:28;;;;;;;25.05;20.52;;;10.50;99.90;;;;;;5137785;27;20231;-86
2022/03/31 05:27:58;;;;;;;25.70;21.10;;;10.50;99.90;;;;;;5155804;27;20234;-87
2022/03/31 05:30:27;;;;;;;40.85;24.02;;;10.40;99.90;;;;;;5155866;27;20206;-85
2022/03/31 05:32:55;;;;;;;27.15;21.35;;;10.40;99.90;;;;;;5156032;27;20218;-85
2022/03/31 05:35:24;;;;;;;27.63;23.42;;;10.40;99.90;;;;;;5155817;27;20270;-86
2022/03/31 05:37:53;;;;;;;26.77;22.45;;;10.40;99.90;;;;;;5155968;27;20302;-86
2022/03/31 05:40:22;;;;;;;26.63;23.13;;;10.40;99.90;;;;;;5155729;27;20206;-87
2022/03/31 05:42:52;;;;;;;28.42;22.73;;;10.40;99.90;;;;;;5155482;27;20254;-85
2022/03/31 05:45:20;;;;;;;23.60;21.30;;;10.40;99.90;;;;;;5155454;27;20237;-85
2022/03/31 05:47:48;;;;;;;24.20;21.10;;;10.40;99.90;;;;;;5155718;27;20251;-88
2022/03/31 05:50:17;;;;;;;30.05;21.08;;;10.40;99.90;;;;;;5155299;27;20247;-86
2022/03/31 05:52:45;;;;;;;23.42;20.95;;;10.40;99.90;;;;;;5155541;27;20253;-85
2022/03/31 05:55:15;;;;;;;28.55;22.98;;;10.50;99.90;;;;;;5155844;27;20226;-85
2022/03/31 05:57:44;;;;;;;25.85;22.98;;;10.40;99.90;;;;;;5126224;27;20231;-85
2022/03/31 06:00:16;;;;;;;28.40;23.70;;;10.40;99.90;;;;;;5135214;27;20203;-86
2022/03/31 06:02:46;;;;;;;24.40;21.90;;;10.40;99.90;;;;;;5134824;27;20288;-84
2022/03/31 06:05:17;;;;;;;28.83;23.08;;;10.40;99.90;;;;;;5134077;27;20222;-85
2022/03/31 06:07:46;;;;;;;24.48;21.52;;;10.40;99.90;;;;;;5134534;27;20250;-85
2022/03/31 06:10:15;;;;;;;27.92;23.20;;;10.50;99.90;;;;;;5130167;27;20270;-85
2022/03/31 06:12:44;;;;;;;27.70;22.25;;;10.50;99.90;;;;;;5129356;27;20297;-86
2022/03/31 06:15:15;;;;;;;29.25;23.90;;;10.50;99.90;;;;;;5114497;27;20236;-86
2022/03/31 06:17:46;;;;;;;44.13;23.25;;;10.50;99.90;;;;;;5119140;27;20267;-86
2022/03/31 06:20:14;;;;;;;27.85;23.15;;;10.40;99.90;;;;;;5114738;27;20199;-86
2022/03/31 06:22:43;;;;;;;25.13;22.42;;;10.40;99.90;;;;;;5114331;27;20243;-86
2022/03/31 06:25:14;;;;;;;28.65;23.13;;;10.40;99.90;;;;;;5113995;27;20245;-86
2022/03/31 06:27:44;;;;;;;25.10;21.60;;;10.40;99.90;;;;;;5114502;27;20210;-88
2022/03/31 06:30:15;;;;;;;30.13;23.77;;;10.40;99.90;;;;;;5114035;27;20271;-85
2022/03/31 06:32:44;;;;;;;28.90;23.05;;;10.40;99.90;;;;;;5113862;27;20220;-87
2022/03/31 06:35:14;;;;;;;26.17;22.30;;;10.30;99.90;;;;;;5114262;28;20192;-86
2022/03/31 06:37:43;;;;;;;28.33;23.50;;;10.30;99.90;;;;;;5114175;27;20244;-86
2022/03/31 06:40:13;;;;;;;26.17;23.00;;;10.30;99.90;;;;;;5114269;27;20245;-86
2022/03/31 06:42:43;;;;;;;27.63;24.23;;;10.30;99.90;;;;;;5112877;27;20284;-85
2022/03/31 06:45:14;;;;;;;26.33;23.73;;;10.20;99.90;;;;;;5113037;28;20208;-85
2022/03/31 06:48:01;;;;;;;32.20;25.23;;;10.20;99.90;;;;;;5114355;27;20196;-86
2022/03/31 06:50:32;;;;;;;26.67;23.80;;;10.20;99.90;;;;;;5113790;27;20200;-86
2022/03/31 06:53:01;;;;;;;30.27;24.13;;;10.10;99.90;;;;;;5113434;27;20302;-86
2022/03/31 06:55:30;;;;;;;27.15;24.33;;;10.20;99.90;;;;;;5113435;27;20253;-86
2022/03/31 06:57:59;;;;;;;26.92;23.50;;;10.20;99.90;;;;;;5113985;27;20223;-85
2022/03/31 07:00:29;;;;;;;26.75;23.30;;;10.20;99.90;;;;;;5113578;27;20275;-85
2022/03/31 07:03:00;;;;;;;26.65;23.73;;;10.20;99.90;;;;;;5117664;27;20239;-85
2022/03/31 07:05:29;;;;;;;30.48;26.95;;;10.10;99.90;;;;;;5115008;27;20218;-87
2022/03/31 07:07:58;;;;;;;29.02;23.67;;;10.20;99.90;;;;;;5130014;27;20202;-86
2022/03/31 07:10:26;;;;;;;28.98;25.98;;;10.10;99.90;;;;;;5131269;27;20203;-86
2022/03/31 07:12:54;;;;;;;31.35;25.15;;;10.00;99.90;;;;;;5113775;27;20261;-85
2022/03/31 07:15:24;;;;;;;37.88;26.10;;;10.00;99.90;;;;;;5113853;27;20246;-85
2022/03/31 07:17:52;;;;;;;39.00;27.02;;;9.90;99.90;;;;;;5124877;27;20203;-85
2022/03/31 07:20:22;;;;;;;30.25;26.85;;;9.80;99.90;;;;;;5134142;27;20195;-86
2022/03/31 07:22:51;;;;;;;27.75;24.92;;;9.80;99.90;;;;;;5124082;27;20219;-87
2022/03/31 07:25:20;;;;;;;36.15;27.80;;;9.80;99.90;;;;;;5122427;27;20249;-86
2022/03/31 07:27:49;;;;;;;37.17;27.58;;;9.70;99.90;;;;;;5137660;27;20274;-87
2022/03/31 07:30:18;;;;;;;32.55;27.10;;;9.60;99.90;;;;;;5134536;27;20199;-86
2022/03/31 07:32:51;;;;;;;31.52;27.45;;;9.50;99.90;;;;;;5128383;27;20222;-87
2022/03/31 07:35:23;;;;;;;29.70;26.60;;;9.50;99.90;;;;;;5117476;27;20305;-86
2022/03/31 07:37:56;;;;;;;32.70;26.10;;;9.50;99.90;;;;;;5114549;27;20191;-87
2022/03/31 07:40:27;;;;;;;28.60;25.63;;;9.50;99.90;;;;;;5123256;27;20199;-88
2022/03/31 07:42:56;;;;;;;28.55;25.55;;;9.50;99.90;;;;;;5134259;27;20223;-87
2022/03/31 07:45:26;;;;;;;35.08;28.30;;;9.50;99.90;;;;;;5129368;27;20339;-89
2022/03/31 07:47:54;;;;;;;28.75;25.63;;;9.50;99.90;;;;;;5115706;27;20199;-86
2022/03/31 07:50:24;;;;;;;32.53;26.55;;;9.50;99.90;;;;;;5113046;27;20268;-89
2022/03/31 07:52:57;;;;;;;33.25;27.88;;;9.40;99.90;;;;;;5131684;27;20215;-89
2022/03/31 07:55:29;;;;;;;32.88;26.02;;;9.30;99.90;;;;;;5115596;27;20221;-86
2022/03/31 07:57:58;;;;;;;30.63;25.80;;;9.30;99.90;;;;;;5133877;27;20459;-89
2022/03/31 08:00:26;;;;;;;35.20;26.35;;;9.30;99.90;;;;;;5133206;27;20302;-89
2022/03/31 08:02:58;;;;;;;29.88;26.40;;;9.30;99.90;;;;;;5119271;27;20223;-85
2022/03/31 08:05:29;;;;;;;29.85;25.20;;;9.30;99.90;;;;;;5112691;27;20243;-85
2022/03/31 08:07:58;;;;;;;25.50;22.95;;;9.30;99.90;;;;;;5113312;27;20204;-85
2022/03/31 08:10:27;;;;;;;25.13;22.38;;;9.30;99.90;;;;;;5113393;27;20219;-85
2022/03/31 08:12:55;;;;;;;26.55;23.65;;;9.30;99.90;;;;;;5127402;28;20215;-86
2022/03/31 08:15:24;;;;;;;33.60;23.55;;;9.30;99.90;;;;;;5123661;27;20200;-85
2022/03/31 08:17:54;;;;;;;28.95;23.63;;;9.30;99.90;;;;;;5125643;27;20209;-86
2022/03/31 08:20:22;;;;;;;23.63;21.10;;;9.30;99.90;;;;;;5133171;27;20199;-86
2022/03/31 08:22:52;;;;;;;26.77;24.00;;;9.20;99.90;;;;;;5137791;27;20219;-86
2022/03/31 08:25:21;;;;;;;29.45;23.10;;;9.20;99.90;;;;;;5135398;27;20215;-86
2022/03/31 08:27:50;;;;;;;29.98;22.50;;;9.20;99.90;;;;;;5137186;27;20203;-86
2022/03/31 08:30:23;;;;;;;26.83;24.00;;;9.20;99.90;;;;;;5135221;27;20207;-86
2022/03/31 08:32:52;;;;;;;26.15;23.38;;;9.20;99.90;;;;;;5127912;27;20280;-86
2022/03/31 08:35:22;;;;;;;34.10;23.65;;;9.20;99.90;;;;;;5129821;27;20220;-86
2022/03/31 08:37:53;;;;;;;27.63;24.30;;;9.20;99.90;;;;;;5132339;27;20200;-85
2022/03/31 08:40:21;;;;;;;29.63;25.10;;;9.20;99.90;;;;;;5128251;27;20202;-86
2022/03/31 08:42:50;;;;;;;26.70;23.85;;;9.20;99.90;;;;;;5116592;27;20224;-85
2022/03/31 08:45:20;;;;;;;26.98;24.02;;;9.20;99.90;;;;;;5119132;27;20284;-86
2022/03/31 08:47:50;;;;;;;27.77;24.67;;;9.20;99.90;;;;;;5137495;27;20290;-86
2022/03/31 08:50:20;;;;;;;29.20;23.92;;;9.20;99.90;;;;;;5123994;27;20192;-86
2022/03/31 08:52:49;;;;;;;26.10;23.40;;;9.20;99.90;;;;;;5122622;27;20234;-86
2022/03/31 08:55:20;;;;;;;28.38;25.17;;;9.20;99.90;;;;;;5124629;27;20222;-85
2022/03/31 08:57:49;;;;;;;32.67;24.58;;;9.20;99.90;;;;;;5123964;27;20227;-86
2022/03/31 09:00:20;;;;;;;24.50;21.92;;;9.20;99.90;;;;;;5136611;27;20211;-86
2022/03/31 09:02:57;;;;;;;26.25;23.58;;;9.10;99.90;;;;;;5126322;27;20269;-86
2022/03/31 09:05:28;;;;;;;27.42;24.58;;;9.10;99.90;;;;;;5120730;27;20215;-86
2022/03/31 09:08:05;;;;;;;29.33;25.08;;;9.10;99.90;;;;;;5126592;27;20222;-87
2022/03/31 09:10:38;;;;;;;27.40;24.02;;;9.10;99.90;;;;;;5149102;27;20283;-86
2022/03/31 09:13:18;;;;;;;27.13;24.27;;;9.00;99.90;;;;;;5121889;27;20333;-87
2022/03/31 09:15:52;;;;;;;28.17;25.13;;;9.10;99.90;;;;;;5115890;27;20226;-86
2022/03/31 09:18:22;;;;;;;28.88;25.77;;;9.00;99.90;;;;;;5116356;27;20206;-86
2022/03/31 09:20:54;;;;;;;27.38;24.65;;;9.10;99.90;;;;;;5116303;27;20192;-86
2022/03/31 09:23:23;;;;;;;29.42;24.67;;;9.10;99.90;;;;;;5114656;27;20228;-85
2022/03/31 09:26:01;;;;;;;26.77;23.98;;;9.00;99.90;;;;;;5114638;27;20288;-86
2022/03/31 09:28:31;;;;;;;27.75;22.90;;;9.00;99.90;;;;;;5116842;27;20275;-86
2022/03/31 09:30:59;;;;;;;31.00;25.45;;;9.00;99.90;;;;;;5115329;27;20292;-86
2022/03/31 09:33:30;;;;;;;26.38;23.63;;;9.00;99.90;;;;;;5116587;27;20195;-86
2022/03/31 09:36:04;;;;;;;28.02;23.40;;;9.00;99.90;;;;;;5115504;28;20291;-86
2022/03/31 09:38:35;;;;;;;27.85;22.92;;;9.00;99.90;;;;;;5124384;27;20191;-85
2022/03/31 09:41:18;;;;;;;28.48;23.50;;;9.00;99.90;;;;;;5131444;27;20226;-89
2022/03/31 09:43:48;;;;;;;25.73;23.08;;;9.00;99.90;;;;;;5125239;27;20248;-85
2022/03/31 09:46:21;;;;;;;23.58;21.30;;;9.00;99.90;;;;;;5117305;27;20307;-83
2022/03/31 09:48:52;;;;;;;27.42;23.85;;;9.10;99.90;;;;;;5122489;27;20203;-87
2022/03/31 09:51:26;;;;;;;22.25;20.05;;;9.00;99.90;;;;;;5136052;27;20308;-84
2022/03/31 09:53:56;;;;;;;24.92;22.27;;;8.90;99.90;;;;;;5136072;27;20237;-85
2022/03/31 09:56:26;;;;;;;24.10;21.63;;;8.80;99.90;;;;;;5121661;27;20196;-85
2022/03/31 09:59:00;;;;;;;24.38;21.83;;;8.80;99.90;;;;;;5115214;27;20227;-85
2022/03/31 10:01:28;;;;;;;25.67;20.65;;;8.80;99.90;;;;;;5119749;27;20223;-84
2022/03/31 10:03:58;;;;;;;22.00;19.65;;;8.70;99.90;;;;;;5135709;27;20203;-85
2022/03/31 10:06:27;;;;;;;24.05;21.30;;;8.80;99.90;;;;;;5133767;27;20211;-84
2022/03/31 10:08:57;;;;;;;24.90;21.35;;;8.80;99.90;;;;;;5136493;27;20195;-84
2022/03/31 10:11:29;;;;;;;21.55;19.45;;;8.70;99.90;;;;;;5134165;27;20215;-85
2022/03/31 10:14:27;;;;;;;28.30;20.45;;;8.70;99.90;;;;;;5135607;27;20217;-84
2022/03/31 10:16:57;;;;;;;22.08;19.95;;;8.70;99.90;;;;;;5123404;27;20215;-85
2022/03/31 10:19:30;;;;;;;39.58;20.27;;;8.70;99.90;;;;;;5134713;27;20206;-84
2022/03/31 10:22:00;;;;;;;24.55;20.45;;;8.70;99.90;;;;;;5114780;27;20232;-85
2022/03/31 10:24:47;;;;;;;21.77;19.42;;;8.70;99.90;;;;;;5115726;27;20287;-85
2022/03/31 10:27:27;;;;;;;20.55;18.27;;;8.70;99.90;;;;;;5114396;27;20243;-85
2022/03/31 10:30:07;;;;;;;23.33;20.13;;;8.70;99.90;;;;;;5121955;27;20199;-85
2022/03/31 10:32:36;;;;;;;19.83;17.77;;;8.80;99.90;;;;;;5140856;27;20206;-85
2022/03/31 10:35:24;;;;;;;21.95;17.70;;;8.80;99.90;;;;;;5155039;27;20225;-86
2022/03/31 10:38:12;;;;;;;20.80;18.30;;;8.80;99.90;;;;;;5155254;27;20212;-87
2022/03/31 10:43:47;;;;;;;21.05;18.20;;;8.80;99.90;;;;;;5050873;28;20296;-84
2022/03/31 10:46:21;;;;;;;20.20;18.05;;;8.90;99.90;;;;;;5064346;28;20271;-90
2022/03/31 10:48:51;;;;;;;18.83;16.92;;;9.00;99.90;;;;;;5070854;28;20277;-88
2022/03/31 10:51:30;;;;;;;20.40;18.50;;;9.00;99.90;;;;;;5053299;28;20284;-88
2022/03/31 10:53:59;;;;;;;20.95;16.73;;;9.00;99.90;;;;;;5053559;28;20229;-85
2022/03/31 10:56:30;;;;;;;19.55;17.52;;;9.00;99.90;;;;;;5053534;28;20210;-85
2022/03/31 10:59:02;;;;;;;18.50;16.67;;;9.00;99.90;;;;;;5053719;28;20197;-85
2022/03/31 11:01:33;;;;;;;20.25;17.63;;;9.00;99.90;;;;;;5053614;28;20225;-87
2022/03/31 11:07:33;;;;;;;17.98;16.15;;;9.10;99.90;;;;;;5045859;28;20252;-84
2022/03/31 11:10:16;;;;;;;17.73;16.13;;;9.10;99.90;;;;;;5049989;28;20200;-83
2022/03/31 11:12:45;;;;;;;26.17;17.58;;;9.10;99.90;;;;;;5054289;28;20304;-85
2022/03/31 11:15:18;;;;;;;17.63;15.73;;;9.10;99.90;;;;;;5033597;28;20206;-84
2022/03/31 11:17:49;;;;;;;18.15;16.45;;;9.10;99.90;;;;;;5065112;28;20189;-85
2022/03/31 11:20:20;;;;;;;16.63;15.15;;;9.10;99.90;;;;;;5052981;28;20205;-87
2022/03/31 11:22:51;;;;;;;18.33;16.52;;;9.10;99.90;;;;;;5053089;28;20224;-86
2022/03/31 11:25:21;;;;;;;18.23;16.42;;;9.00;99.90;;;;;;5053556;28;20205;-86
2022/03/31 11:27:50;;;;;;;18.75;16.92;;;9.00;99.90;;;;;;5053480;28;20232;-85
2022/03/31 11:30:22;;;;;;;18.17;16.30;;;9.00;99.90;;;;;;5052793;28;20259;-86
2022/03/31 11:32:53;;;;;;;16.85;15.20;;;9.00;99.90;;;;;;5051261;28;20226;-86
2022/03/31 11:35:24;;;;;;;20.35;16.10;;;9.00;99.90;;;;;;5051916;28;20206;-85
2022/03/31 11:38:05;;;;;;;16.25;14.73;;;8.90;99.90;;;;;;5053886;28;20243;-89
2022/03/31 11:40:46;;;;;;;17.17;15.57;;;9.00;99.90;;;;;;5052875;28;20198;-87
2022/03/31 11:43:18;;;;;;;20.50;16.55;;;9.00;99.90;;;;;;5051087;28;20233;-85
2022/03/31 11:45:51;;;;;;;15.10;13.75;;;9.00;99.90;;;;;;5052442;28;20205;-84
2022/03/31 11:48:33;;;;;;;16.98;15.35;;;8.90;99.90;;;;;;5052883;28;20209;-83
2022/03/31 11:51:04;;;;;;;16.17;14.48;;;8.90;99.90;;;;;;5032494;28;20210;-83
2022/03/31 11:53:38;;;;;;;17.27;15.48;;;8.90;99.90;;;;;;5032058;28;20210;-83
2022/03/31 11:56:10;;;;;;;16.27;14.60;;;8.80;99.90;;;;;;5035003;28;20230;-83
2022/03/31 11:58:46;;;;;;;16.80;15.20;;;8.80;99.90;;;;;;5036197;28;20206;-83
2022/03/31 12:01:17;;;;;;;17.15;15.20;;;8.80;99.90;;;;;;5035445;28;20198;-83
2022/03/31 12:03:45;;;;;;;16.83;15.10;;;8.80;99.90;;;;;;5035864;28;20230;-84
2022/03/31 12:06:15;;;;;;;19.95;16.17;;;8.80;99.90;;;;;;5035168;28;20210;-84
2022/03/31 12:08:44;;;;;;;15.52;13.95;;;8.80;99.90;;;;;;5035460;28;20217;-83
2022/03/31 12:11:14;;;;;;;16.63;14.93;;;8.70;99.90;;;;;;5035293;28;20203;-83
2022/03/31 12:13:51;;;;;;;15.27;13.63;;;8.80;99.90;;;;;;5035965;28;20210;-83
2022/03/31 12:16:27;;;;;;;15.27;13.80;;;8.70;99.90;;;;;;5035262;28;20214;-84
2022/03/31 12:18:57;;;;;;;14.93;13.43;;;8.80;99.90;;;;;;5035757;28;20209;-84
2022/03/31 12:21:27;;;;;;;15.75;14.23;;;8.80;99.90;;;;;;5034927;28;20254;-83
2022/03/31 12:24:00;;;;;;;18.77;16.25;;;8.80;99.90;;;;;;5035450;28;20226;-83
2022/03/31 12:26:54;;;;;;;14.68;13.10;;;8.80;99.90;;;;;;5035425;28;20230;-84
2022/03/31 12:29:24;;;;;;;15.45;14.02;;;8.70;99.90;;;;;;5035206;28;20206;-84
2022/03/31 12:32:05;;;;;;;17.35;15.60;;;8.60;99.90;;;;;;5034936;28;20257;-84
2022/03/31 12:34:36;;;;;;;15.88;14.38;;;8.60;99.90;;;;;;5035491;28;20202;-84
2022/03/31 12:37:06;;;;;;;16.73;14.75;;;8.60;99.90;;;;;;5035610;28;20286;-84
2022/03/31 12:39:41;;;;;;;18.67;15.35;;;8.60;99.90;;;;;;5035240;28;20213;-84
2022/03/31 12:42:10;;;;;;;16.58;14.98;;;8.70;99.90;;;;;;5034664;28;20242;-84
2022/03/31 12:44:41;;;;;;;24.83;16.25;;;8.70;99.90;;;;;;5034631;28;20203;-84
2022/03/31 12:47:12;;;;;;;17.73;15.38;;;8.70;99.90;;;;;;5035015;28;20241;-84
2022/03/31 12:49:41;;;;;;;16.02;14.60;;;8.70;99.90;;;;;;5035173;28;20198;-84
2022/03/31 12:52:13;;;;;;;18.73;16.15;;;8.80;99.90;;;;;;5034520;28;20261;-84
2022/03/31 12:54:48;;;;;;;23.30;17.52;;;8.80;99.90;;;;;;5034753;28;20206;-83
2022/03/31 12:57:19;;;;;;;17.27;15.57;;;8.80;99.90;;;;;;5034927;28;20242;-83